Time;durP1;ratioP1;P1;durP2;ratioP2;P2;SDS_P1;SDS_P2;PMS_P1;PMS_P2;Temp;Humidity;BMP_temperature;BMP_pressure;BME280_temperature;BME280_humidity;BME280_pressure;Samples;Min_cycle;Max_cycle;Signal;HPM_P1;HPM_P2
2021/03/26 00:00:58;;;;;;;14.63;2.20;;;;;;;;;;5011908;28;20030;-39
2021/03/26 00:03:25;;;;;;;;;;;;;;;;;;5003097;28;20025;-41
2021/03/26 00:05:54;;;;;;;15.43;2.50;;;;;;;;;;5013704;28;19988;-39
2021/03/26 00:08:21;;;;;;;13.98;2.92;;;;;;;;;;5012368;28;20022;-41
2021/03/26 00:10:49;;;;;;;16.48;3.22;;;;;;;;;;4996537;28;20040;-39
2021/03/26 00:13:16;;;;;;;11.82;2.33;;;;;;;;;;5012651;28;20501;-38
2021/03/26 00:15:43;;;;;;;16.45;2.72;;;;;;;;;;5013557;28;20032;-38
2021/03/26 00:18:10;;;;;;;17.83;3.00;;;;;;;;;;5013369;28;20476;-38
2021/03/26 00:20:37;;;;;;;13.25;2.55;;;;;;;;;;5000580;28;20032;-40
2021/03/26 00:23:06;;;;;;;15.13;2.67;;;;;;;;;;5006013;28;20547;-37
2021/03/26 00:25:33;;;;;;;17.67;3.92;;;;;;;;;;5009325;28;20084;-39
2021/03/26 00:28:00;;;;;;;20.25;3.50;;;;;;;;;;4994767;28;20026;-38
2021/03/26 00:30:27;;;;;;;14.50;3.00;;;;;;;;;;4997182;28;20085;-38
2021/03/26 00:32:55;;;;;;;12.98;2.67;;;;;;;;;;4995051;28;20093;-42
2021/03/26 00:35:23;;;;;;;14.55;2.92;;;;;;;;;;4996518;28;20076;-41
2021/03/26 00:37:50;;;;;;;16.63;3.17;;;;;;;;;;4993057;28;20031;-37
2021/03/26 00:40:19;;;;;;;16.20;3.13;;;;;;;;;;4993203;28;20021;-38
2021/03/26 00:42:46;;;;;;;14.23;2.38;;;;;;;;;;4991873;28;20041;-37
2021/03/26 00:45:16;;;;;;;11.80;3.15;;;;;;;;;;4996069;28;20031;-37
2021/03/26 00:47:43;;;;;;;11.70;3.00;;;;;;;;;;4994770;28;20030;-40
2021/03/26 00:50:13;;;;;;;8.75;2.38;;;;;;;;;;5003478;28;20030;-37
2021/03/26 00:52:40;;;;;;;13.63;3.40;;;;;;;;;;4995987;28;20033;-39
2021/03/26 00:55:07;;;;;;;9.30;2.40;;;;;;;;;;5002476;28;20014;-40
2021/03/26 00:57:34;;;;;;;9.70;2.10;;;;;;;;;;5002284;28;20462;-54
2021/03/26 01:00:01;;;;;;;10.75;2.03;;;;;;;;;;4992516;28;20026;-52
2021/03/26 01:02:28;;;;;;;8.15;2.10;;;;;;;;;;4993579;28;20117;-53
2021/03/26 01:04:55;;;;;;;11.75;2.38;;;;;;;;;;4992859;28;20031;-50
2021/03/26 01:07:22;;;;;;;8.60;2.13;;;;;;;;;;4992285;28;20029;-54
2021/03/26 01:09:49;;;;;;;9.13;2.10;;;;;;;;;;5011510;28;20488;-50
2021/03/26 01:12:16;;;;;;;9.15;2.15;;;;;;;;;;5013446;28;20418;-49
2021/03/26 01:14:43;;;;;;;10.82;2.20;;;;;;;;;;5011910;28;20032;-39
2021/03/26 01:17:10;;;;;;;11.38;2.28;;;;;;;;;;5012742;28;20026;-40
2021/03/26 01:19:41;;;;;;;11.02;2.05;;;;;;;;;;5012660;28;20098;-40
2021/03/26 01:22:08;;;;;;;10.57;2.17;;;;;;;;;;5004183;28;20045;-38
2021/03/26 01:24:36;;;;;;;8.90;2.10;;;;;;;;;;5000549;28;20030;-39
2021/03/26 01:27:03;;;;;;;8.50;2.40;;;;;;;;;;4996881;28;20048;-40
2021/03/26 01:29:30;;;;;;;9.23;2.00;;;;;;;;;;4997534;28;20021;-45
2021/03/26 01:31:57;;;;;;;8.60;1.95;;;;;;;;;;4995211;28;20068;-39
2021/03/26 01:34:24;;;;;;;8.05;2.33;;;;;;;;;;4996098;28;20021;-40
2021/03/26 01:36:51;;;;;;;11.15;1.88;;;;;;;;;;4975577;28;20041;-39
2021/03/26 01:39:18;;;;;;;7.63;2.33;;;;;;;;;;4991230;28;20015;-39
2021/03/26 01:41:47;;;;;;;11.60;2.60;;;;;;;;;;4993414;28;20497;-46
2021/03/26 01:44:15;;;;;;;9.70;2.30;;;;;;;;;;4997610;28;20066;-39
2021/03/26 01:46:46;;;;;;;12.38;2.60;;;;;;;;;;4993570;28;20026;-39
2021/03/26 01:49:13;;;;;;;8.40;1.98;;;;;;;;;;4994034;28;20022;-38
2021/03/26 01:51:45;;;;;;;7.13;2.30;;;;;;;;;;4992370;28;20034;-44
2021/03/26 01:54:13;;;;;;;9.93;2.65;;;;;;;;;;4992254;28;20093;-45
2021/03/26 01:56:40;;;;;;;10.52;1.90;;;;;;;;;;4992175;28;20113;-39
2021/03/26 01:59:07;;;;;;;10.65;2.50;;;;;;;;;;4996549;28;20068;-41
2021/03/26 02:02:01;;;;;;;9.65;2.58;;;;;;;;;;5004782;28;20525;-38
2021/03/26 02:04:30;;;;;;;9.93;1.70;;;;;;;;;;4997320;28;20549;-39
2021/03/26 02:06:59;;;;;;;6.75;1.95;;;;;;;;;;5011744;28;20084;-38
2021/03/26 02:09:31;;;;;;;10.07;2.03;;;;;;;;;;5010204;28;20494;-38
2021/03/26 02:12:18;;;;;;;8.32;2.10;;;;;;;;;;5011677;28;20049;-38
2021/03/26 02:14:48;;;;;;;11.00;2.20;;;;;;;;;;5002173;28;20030;-38
2021/03/26 02:17:17;;;;;;;6.82;1.90;;;;;;;;;;5011551;28;20044;-38
2021/03/26 02:19:59;;;;;;;7.43;2.40;;;;;;;;;;5010800;28;20042;-38
2021/03/26 02:22:27;;;;;;;9.20;2.07;;;;;;;;;;5011494;28;20018;-38
2021/03/26 02:24:57;;;;;;;8.50;2.05;;;;;;;;;;5011490;28;20022;-38
2021/03/26 02:27:28;;;;;;;7.43;1.77;;;;;;;;;;5011498;28;20017;-38
2021/03/26 02:29:55;;;;;;;8.55;2.13;;;;;;;;;;5010867;28;20032;-38
2021/03/26 02:32:25;;;;;;;6.47;2.22;;;;;;;;;;5011077;28;20422;-39
2021/03/26 02:35:10;;;;;;;7.53;1.88;;;;;;;;;;5011119;28;20018;-39
2021/03/26 02:37:39;;;;;;;5.90;1.88;;;;;;;;;;5005837;28;20025;-38
2021/03/26 02:40:08;;;;;;;8.75;1.80;;;;;;;;;;5011107;28;20052;-38
2021/03/26 02:42:35;;;;;;;7.22;2.10;;;;;;;;;;5011226;28;20026;-38
2021/03/26 02:45:13;;;;;;;9.07;1.77;;;;;;;;;;5011287;28;20036;-38
2021/03/26 02:47:40;;;;;;;9.55;2.10;;;;;;;;;;5010882;28;20017;-38
2021/03/26 02:50:22;;;;;;;4.75;1.67;;;;;;;;;;5011753;28;20037;-39
2021/03/26 02:52:52;;;;;;;9.68;2.20;;;;;;;;;;5011561;28;20587;-38
2021/03/26 02:55:31;;;;;;;10.95;1.73;;;;;;;;;;5012015;28;20040;-39
2021/03/26 02:58:18;;;;;;;9.18;2.10;;;;;;;;;;4994303;28;20026;-39
2021/03/26 03:00:48;;;;;;;7.22;1.83;;;;;;;;;;5011917;28;20034;-37
2021/03/26 03:03:16;;;;;;;5.50;2.00;;;;;;;;;;5011360;28;20021;-39
2021/03/26 03:05:44;;;;;;;6.88;1.75;;;;;;;;;;5011754;28;20022;-37
2021/03/26 03:08:15;;;;;;;5.20;1.80;;;;;;;;;;5011487;28;20018;-38
2021/03/26 03:10:42;;;;;;;8.75;2.05;;;;;;;;;;5014052;28;20061;-39
2021/03/26 03:13:25;;;;;;;8.07;2.10;;;;;;;;;;5014881;28;20416;-39
2021/03/26 03:16:16;;;;;;;8.52;2.00;;;;;;;;;;5015428;28;20030;-39
2021/03/26 03:18:46;;;;;;;7.95;1.90;;;;;;;;;;5005242;28;20542;-38
2021/03/26 03:21:35;;;;;;;6.18;1.55;;;;;;;;;;5015355;28;20512;-39
2021/03/26 03:24:22;;;;;;;7.30;2.13;;;;;;;;;;5014733;28;20061;-38
2021/03/26 03:27:07;;;;;;;6.35;1.75;;;;;;;;;;5015575;28;20021;-41
2021/03/26 03:29:35;;;;;;;6.60;1.92;;;;;;;;;;5015001;28;20026;-44
2021/03/26 03:32:07;;;;;;;5.68;2.05;;;;;;;;;;5015302;28;20072;-39
2021/03/26 03:34:38;;;;;;;6.07;1.77;;;;;;;;;;5014718;28;20034;-53
2021/03/26 03:37:05;;;;;;;7.45;1.73;;;;;;;;;;5015341;28;20029;-40
2021/03/26 03:39:41;;;;;;;6.45;1.65;;;;;;;;;;5014782;28;20025;-42
2021/03/26 03:42:31;;;;;;;4.70;1.67;;;;;;;;;;5015282;28;20076;-40
2021/03/26 03:44:58;;;;;;;3.78;1.73;;;;;;;;;;5004803;28;20070;-42
2021/03/26 03:47:34;;;;;;;5.20;1.45;;;;;;;;;;5015039;28;20021;-47
2021/03/26 03:50:17;;;;;;;6.07;1.75;;;;;;;;;;5014984;28;20025;-47
2021/03/26 03:52:49;;;;;;;4.72;1.70;;;;;;;;;;5015304;28;20480;-44
2021/03/26 03:55:16;;;;;;;10.70;2.00;;;;;;;;;;5014437;28;20390;-40
2021/03/26 03:57:48;;;;;;;5.57;1.60;;;;;;;;;;5014563;28;20084;-43
2021/03/26 04:00:19;;;;;;;4.47;1.95;;;;;;;;;;5014387;28;20034;-39
2021/03/26 04:02:52;;;;;;;6.63;1.80;;;;;;;;;;5015017;28;20029;-40
2021/03/26 04:05:19;;;;;;;4.97;1.40;;;;;;;;;;5014575;28;20432;-40
2021/03/26 04:08:04;;;;;;;4.82;1.60;;;;;;;;;;5014125;28;20026;-41
2021/03/26 04:10:32;;;;;;;7.63;2.22;;;;;;;;;;5014377;28;20022;-43
2021/03/26 04:13:02;;;;;;;6.00;1.98;;;;;;;;;;5014311;28;20041;-42
2021/03/26 04:15:34;;;;;;;7.50;1.60;;;;;;;;;;5014348;28;20502;-45
2021/03/26 04:18:10;;;;;;;6.43;1.50;;;;;;;;;;5013918;28;20490;-39
2021/03/26 04:20:40;;;;;;;4.88;1.40;;;;;;;;;;5014273;28;20034;-43
2021/03/26 04:23:17;;;;;;;4.22;1.83;;;;;;;;;;5013196;28;20438;-48
2021/03/26 04:25:50;;;;;;;3.95;1.50;;;;;;;;;;5014453;28;20022;-44
2021/03/26 04:28:16;;;;;;;;;;;;;;;;;;5014393;28;20371;-39
2021/03/26 04:30:47;;;;;;;5.65;1.42;;;;;;;;;;5014025;28;20063;-39
2021/03/26 04:33:14;;;;;;;4.15;1.65;;;;;;;;;;5013757;28;20018;-40
2021/03/26 04:35:41;;;;;;;5.57;1.92;;;;;;;;;;5013913;28;20478;-39
2021/03/26 04:38:08;;;;;;;3.97;1.63;;;;;;;;;;5013672;28;20037;-38
2021/03/26 04:40:39;;;;;;;6.22;1.95;;;;;;;;;;5014221;28;20022;-38
2021/03/26 04:43:25;;;;;;;8.18;1.73;;;;;;;;;;5013769;28;20095;-38
2021/03/26 04:45:54;;;;;;;7.38;1.80;;;;;;;;;;5013937;28;20474;-38
2021/03/26 04:48:33;;;;;;;4.65;1.58;;;;;;;;;;5013519;28;20061;-39
2021/03/26 04:51:21;;;;;;;6.43;1.73;;;;;;;;;;5013843;28;20030;-38
2021/03/26 04:54:08;;;;;;;7.55;1.58;;;;;;;;;;5000671;28;20876;-38
2021/03/26 04:56:37;;;;;;;8.30;1.73;;;;;;;;;;5000197;28;20091;-39
2021/03/26 04:59:06;;;;;;;6.43;2.00;;;;;;;;;;5013320;28;20099;-38
2021/03/26 05:01:33;;;;;;;5.32;1.45;;;;;;;;;;5013656;28;20477;-38
2021/03/26 05:04:11;;;;;;;4.00;1.20;;;;;;;;;;5013253;28;20033;-38
2021/03/26 05:06:42;;;;;;;9.10;1.75;;;;;;;;;;5013357;28;20030;-39
2021/03/26 05:09:18;;;;;;;4.05;1.38;;;;;;;;;;5013095;28;20029;-38
2021/03/26 05:11:46;;;;;;;5.60;1.60;;;;;;;;;;5013653;28;20117;-39
2021/03/26 05:14:19;;;;;;;5.22;1.65;;;;;;;;;;5013106;28;20033;-39
2021/03/26 05:16:45;;;;;;;;;;;;;;;;;;4996289;28;20022;-38
2021/03/26 05:19:26;;;;;;;4.22;1.60;;;;;;;;;;5013147;28;20296;-38
2021/03/26 05:22:13;;;;;;;7.72;1.73;;;;;;;;;;5012998;28;20028;-39
2021/03/26 05:24:52;;;;;;;6.43;1.58;;;;;;;;;;4973239;28;20061;-38
2021/03/26 05:27:19;;;;;;;5.22;1.75;;;;;;;;;;5013415;28;20088;-38
2021/03/26 05:29:47;;;;;;;5.22;1.70;;;;;;;;;;5013071;28;20034;-38
2021/03/26 05:32:17;;;;;;;9.07;1.63;;;;;;;;;;5012167;28;20549;-38
2021/03/26 05:34:49;;;;;;;5.18;1.40;;;;;;;;;;5013193;28;20026;-39
2021/03/26 05:37:30;;;;;;;4.82;1.25;;;;;;;;;;5012581;28;20054;-38
2021/03/26 05:40:00;;;;;;;5.65;1.30;;;;;;;;;;5013139;28;20018;-38
2021/03/26 05:42:28;;;;;;;5.50;1.30;;;;;;;;;;5012019;28;20389;-39
2021/03/26 05:45:13;;;;;;;5.07;1.50;;;;;;;;;;5012783;28;20109;-38
2021/03/26 05:48:06;;;;;;;6.47;1.60;;;;;;;;;;5012523;28;20084;-38
2021/03/26 05:50:41;;;;;;;4.18;1.50;;;;;;;;;;4989987;28;20041;-39
2021/03/26 05:53:26;;;;;;;4.40;1.17;;;;;;;;;;5012402;28;20030;-41
2021/03/26 05:56:16;;;;;;;5.20;1.65;;;;;;;;;;5012726;28;20029;-41
2021/03/26 05:59:21;;;;;;;3.47;1.30;;;;;;;;;;5004255;28;20385;-46
2021/03/26 06:02:17;;;;;;;5.22;1.50;;;;;;;;;;4951635;29;20039;-41
2021/03/26 06:04:51;;;;;;;4.38;1.30;;;;;;;;;;4918853;29;20039;-43
2021/03/26 06:07:36;;;;;;;4.53;1.33;;;;;;;;;;4995611;28;20435;-41
2021/03/26 06:10:21;;;;;;;4.15;1.52;;;;;;;;;;5012432;28;20402;-40
2021/03/26 06:12:48;;;;;;;7.45;1.77;;;;;;;;;;5011959;28;20088;-50
2021/03/26 06:15:18;;;;;;;6.45;1.60;;;;;;;;;;5012451;28;20101;-50
2021/03/26 06:17:53;;;;;;;4.57;1.15;;;;;;;;;;5011766;28;20117;-38
2021/03/26 06:20:36;;;;;;;5.60;1.92;;;;;;;;;;5012576;28;20049;-43
2021/03/26 06:23:02;;;;;;;;;;;;;;;;;;5012529;28;20026;-37
2021/03/26 06:25:40;;;;;;;6.03;1.45;;;;;;;;;;5012432;28;19921;-38
2021/03/26 06:28:25;;;;;;;5.20;1.73;;;;;;;;;;5012312;28;20030;-38
2021/03/26 06:31:07;;;;;;;5.22;1.42;;;;;;;;;;5012203;28;20069;-39
2021/03/26 06:33:46;;;;;;;5.45;1.90;;;;;;;;;;5011823;28;20073;-38
2021/03/26 06:36:16;;;;;;;4.68;1.70;;;;;;;;;;5012035;28;20494;-39
2021/03/26 06:38:58;;;;;;;5.65;1.90;;;;;;;;;;5011315;28;20029;-38
2021/03/26 06:41:41;;;;;;;4.60;1.50;;;;;;;;;;5012026;28;20026;-38
2021/03/26 06:44:17;;;;;;;8.65;1.95;;;;;;;;;;5011942;28;20034;-38
2021/03/26 06:47:07;;;;;;;4.93;1.40;;;;;;;;;;5015855;28;20487;-38
2021/03/26 06:49:49;;;;;;;4.32;1.50;;;;;;;;;;5015678;28;20057;-38
2021/03/26 06:52:21;;;;;;;5.32;1.38;;;;;;;;;;5016063;28;20120;-38
2021/03/26 06:55:06;;;;;;;5.23;1.67;;;;;;;;;;5015667;28;20097;-38
2021/03/26 06:57:51;;;;;;;6.82;1.77;;;;;;;;;;5015950;28;20026;-39
2021/03/26 07:00:44;;;;;;;3.55;1.48;;;;;;;;;;5015371;28;20026;-38
2021/03/26 07:03:27;;;;;;;4.50;1.23;;;;;;;;;;4992931;28;20434;-37
2021/03/26 07:06:11;;;;;;;4.85;1.75;;;;;;;;;;5015423;28;20389;-39
2021/03/26 07:08:38;;;;;;;7.07;1.83;;;;;;;;;;5015583;28;20022;-39
2021/03/26 07:11:23;;;;;;;2.97;1.40;;;;;;;;;;5014990;28;20034;-39
2021/03/26 07:14:03;;;;;;;4.65;2.03;;;;;;;;;;5015647;28;20101;-39
2021/03/26 07:16:33;;;;;;;5.68;1.73;;;;;;;;;;5015024;28;20033;-39
2021/03/26 07:19:18;;;;;;;4.93;1.48;;;;;;;;;;5015447;28;20053;-38
2021/03/26 07:22:00;;;;;;;5.07;1.40;;;;;;;;;;5015257;28;20045;-38
2021/03/26 07:24:42;;;;;;;4.57;1.30;;;;;;;;;;4998258;28;20109;-39
2021/03/26 07:27:12;;;;;;;4.93;1.60;;;;;;;;;;5015166;28;20044;-38
2021/03/26 07:29:57;;;;;;;4.65;1.55;;;;;;;;;;5015417;28;20246;-38
2021/03/26 07:32:28;;;;;;;3.58;1.40;;;;;;;;;;5014894;28;20038;-38
2021/03/26 07:35:22;;;;;;;5.07;1.47;;;;;;;;;;5015400;28;20015;-39
2021/03/26 07:38:01;;;;;;;4.10;1.38;;;;;;;;;;5014596;28;20030;-39
2021/03/26 07:40:31;;;;;;;5.28;1.40;;;;;;;;;;5014964;28;20026;-39
2021/03/26 07:43:16;;;;;;;4.70;1.73;;;;;;;;;;5014705;28;20478;-39
2021/03/26 07:45:46;;;;;;;6.25;1.75;;;;;;;;;;5015266;28;20018;-38
2021/03/26 07:48:23;;;;;;;7.00;1.85;;;;;;;;;;5014500;28;20076;-39
2021/03/26 07:50:58;;;;;;;6.75;1.63;;;;;;;;;;5014937;28;20029;-41
2021/03/26 07:53:28;;;;;;;3.45;1.25;;;;;;;;;;5014471;28;20049;-39
2021/03/26 07:56:13;;;;;;;4.97;1.45;;;;;;;;;;5015051;28;20101;-39
2021/03/26 07:58:40;;;;;;;3.80;1.48;;;;;;;;;;5014290;28;20100;-38
2021/03/26 08:01:17;;;;;;;4.90;1.73;;;;;;;;;;5015060;28;20037;-38
2021/03/26 08:03:44;;;;;;;5.30;1.50;;;;;;;;;;5007834;28;20462;-38
2021/03/26 08:06:19;;;;;;;5.15;1.50;;;;;;;;;;5005227;28;20018;-38
2021/03/26 08:09:01;;;;;;;5.97;1.35;;;;;;;;;;5013440;28;20025;-39
2021/03/26 08:11:46;;;;;;;3.72;1.50;;;;;;;;;;5014320;28;20053;-38
2021/03/26 08:14:22;;;;;;;5.88;1.85;;;;;;;;;;5014553;28;20033;-39
2021/03/26 08:16:49;;;;;;;5.18;1.67;;;;;;;;;;4996985;28;20433;-38
2021/03/26 08:19:31;;;;;;;5.70;1.55;;;;;;;;;;5013994;28;20570;-40
2021/03/26 08:22:03;;;;;;;4.90;1.57;;;;;;;;;;5013856;28;20053;-48
2021/03/26 08:24:40;;;;;;;4.88;1.25;;;;;;;;;;5014066;28;20030;-43
2021/03/26 08:27:36;;;;;;;4.47;1.55;;;;;;;;;;5011886;28;20018;-47
2021/03/26 08:30:12;;;;;;;5.22;1.55;;;;;;;;;;5001359;28;20045;-40
2021/03/26 08:33:03;;;;;;;3.92;1.08;;;;;;;;;;5014097;28;20034;-46
2021/03/26 08:35:44;;;;;;;5.07;1.40;;;;;;;;;;5013787;28;20038;-39
2021/03/26 08:38:11;;;;;;;4.53;1.20;;;;;;;;;;5013320;28;20041;-42
2021/03/26 08:40:48;;;;;;;3.85;1.50;;;;;;;;;;5013914;28;20032;-38
2021/03/26 08:43:16;;;;;;;5.03;1.60;;;;;;;;;;5013899;28;20092;-42
2021/03/26 08:45:46;;;;;;;5.15;1.45;;;;;;;;;;5013990;28;20030;-48
2021/03/26 08:48:16;;;;;;;6.00;1.45;;;;;;;;;;5013266;28;20084;-45
2021/03/26 08:51:01;;;;;;;4.28;1.30;;;;;;;;;;5014063;28;20060;-44
2021/03/26 08:53:36;;;;;;;4.40;1.17;;;;;;;;;;5013598;28;20042;-47
2021/03/26 08:56:06;;;;;;;4.55;1.73;;;;;;;;;;5013613;28;20028;-43
2021/03/26 08:58:54;;;;;;;5.43;1.60;;;;;;;;;;5013159;28;20129;-45
2021/03/26 09:01:24;;;;;;;6.85;1.27;;;;;;;;;;5013649;28;20073;-45
2021/03/26 09:04:09;;;;;;;4.88;1.70;;;;;;;;;;5013108;28;20026;-40
2021/03/26 09:06:54;;;;;;;6.20;1.50;;;;;;;;;;5013414;28;20521;-44
2021/03/26 09:09:23;;;;;;;4.40;1.48;;;;;;;;;;5012306;28;20428;-43
2021/03/26 09:11:53;;;;;;;5.22;1.13;;;;;;;;;;5013547;28;20125;-40
2021/03/26 09:14:23;;;;;;;5.95;1.50;;;;;;;;;;5012946;28;20108;-44
2021/03/26 09:16:56;;;;;;;4.65;1.48;;;;;;;;;;5013424;28;20698;-39
2021/03/26 09:19:30;;;;;;;6.53;1.73;;;;;;;;;;5012563;28;20663;-39
2021/03/26 09:22:10;;;;;;;5.40;1.40;;;;;;;;;;5013681;28;20077;-38
2021/03/26 09:24:52;;;;;;;5.65;1.65;;;;;;;;;;5013092;28;20018;-39
2021/03/26 09:27:42;;;;;;;5.70;1.70;;;;;;;;;;5013243;28;20038;-39
2021/03/26 09:30:30;;;;;;;5.20;1.60;;;;;;;;;;5004778;28;20197;-39
2021/03/26 09:33:16;;;;;;;5.55;1.20;;;;;;;;;;5013430;28;20026;-40
2021/03/26 09:35:54;;;;;;;4.90;1.35;;;;;;;;;;5012829;28;20024;-39
2021/03/26 09:38:24;;;;;;;4.38;1.40;;;;;;;;;;5013040;28;20370;-38
2021/03/26 09:41:05;;;;;;;4.78;1.50;;;;;;;;;;5012269;28;20535;-39
2021/03/26 09:43:34;;;;;;;5.07;1.70;;;;;;;;;;5012850;28;20409;-38
2021/03/26 09:46:04;;;;;;;4.57;1.45;;;;;;;;;;5012299;28;20109;-39
2021/03/26 09:48:50;;;;;;;6.03;1.83;;;;;;;;;;5012935;28;20425;-41
2021/03/26 09:51:35;;;;;;;4.30;1.38;;;;;;;;;;5012151;28;20046;-39
2021/03/26 09:54:20;;;;;;;5.63;1.40;;;;;;;;;;5012844;28;20025;-38
2021/03/26 09:57:00;;;;;;;5.55;1.40;;;;;;;;;;5012398;28;20022;-39
2021/03/26 09:59:36;;;;;;;4.80;1.27;;;;;;;;;;5012629;28;20177;-38
2021/03/26 10:02:12;;;;;;;5.65;1.60;;;;;;;;;;5012337;28;20478;-38
2021/03/26 10:04:56;;;;;;;6.00;1.60;;;;;;;;;;5012847;28;20037;-38
2021/03/26 10:07:36;;;;;;;6.00;1.35;;;;;;;;;;5011651;28;20041;-39
2021/03/26 10:12:52;;;;;;;5.10;1.40;;;;;;;;;;5012273;28;20073;-39
2021/03/26 10:15:28;;;;;;;4.55;1.27;;;;;;;;;;5012389;28;20018;-39
2021/03/26 10:18:14;;;;;;;4.00;1.30;;;;;;;;;;5011839;28;20049;-38
2021/03/26 10:20:44;;;;;;;8.27;1.63;;;;;;;;;;5012319;28;20028;-39
2021/03/26 10:23:31;;;;;;;6.15;1.40;;;;;;;;;;5012174;28;20369;-38
2021/03/26 10:26:08;;;;;;;5.07;1.30;;;;;;;;;;5012410;28;20022;-38
2021/03/26 10:28:34;;;;;;;5.85;1.75;;;;;;;;;;5011777;28;20034;-38
2021/03/26 10:31:18;;;;;;;7.43;1.38;;;;;;;;;;5012101;28;20022;-38
2021/03/26 10:33:48;;;;;;;6.00;1.55;;;;;;;;;;5011883;28;20530;-39
2021/03/26 10:36:33;;;;;;;4.15;1.33;;;;;;;;;;5012407;28;20049;-39
2021/03/26 10:39:21;;;;;;;7.25;1.52;;;;;;;;;;5011788;28;20026;-39
2021/03/26 10:41:50;;;;;;;4.82;0.98;;;;;;;;;;5012111;28;20018;-39
2021/03/26 10:44:38;;;;;;;9.20;2.25;;;;;;;;;;5011651;28;20034;-39
2021/03/26 10:47:05;;;;;;;14.98;2.58;;;;;;;;;;5011717;28;20705;-38
2021/03/26 10:49:38;;;;;;;15.55;2.50;;;;;;;;;;5011552;28;20389;-39
2021/03/26 10:52:37;;;;;;;14.82;3.38;;;;;;;;;;5011428;28;20040;-38
2021/03/26 10:55:11;;;;;;;14.02;2.75;;;;;;;;;;4968494;28;20398;-39
2021/03/26 10:57:41;;;;;;;14.27;2.55;;;;;;;;;;5012049;28;20072;-41
2021/03/26 11:00:17;;;;;;;20.27;2.85;;;;;;;;;;5011650;28;20091;-38
2021/03/26 11:02:59;;;;;;;12.40;2.67;;;;;;;;;;5012324;28;20036;-38
2021/03/26 11:05:26;;;;;;;20.98;3.50;;;;;;;;;;5011570;28;20058;-39
2021/03/26 11:08:17;;;;;;;14.07;2.20;;;;;;;;;;5011966;28;20026;-38
2021/03/26 11:10:53;;;;;;;21.20;3.00;;;;;;;;;;5011069;28;20540;-38
2021/03/26 11:13:26;;;;;;;15.65;2.58;;;;;;;;;;5011432;28;20025;-39
2021/03/26 11:15:56;;;;;;;22.27;3.42;;;;;;;;;;5011312;28;20057;-41
2021/03/26 11:18:27;;;;;;;20.45;3.20;;;;;;;;;;5005982;28;20106;-50
2021/03/26 11:20:57;;;;;;;26.08;3.22;;;;;;;;;;5005954;28;20035;-51
2021/03/26 11:23:29;;;;;;;16.52;3.83;;;;;;;;;;4995444;28;20069;-49
2021/03/26 11:26:05;;;;;;;16.23;2.73;;;;;;;;;;5000109;28;20014;-47
2021/03/26 11:28:47;;;;;;;34.47;4.35;;;;;;;;;;5005387;28;20331;-52
2021/03/26 11:31:20;;;;;;;26.67;3.17;;;;;;;;;;5003836;28;20088;-52
2021/03/26 11:33:56;;;;;;;13.68;2.80;;;;;;;;;;5004456;28;20405;-54
2021/03/26 11:36:30;;;;;;;17.95;3.42;;;;;;;;;;5001480;28;20038;-55
2021/03/26 11:38:59;;;;;;;14.40;3.05;;;;;;;;;;4996675;28;20057;-58
2021/03/26 11:41:33;;;;;;;22.83;3.42;;;;;;;;;;5002959;28;20022;-54
2021/03/26 11:44:02;;;;;;;33.45;4.82;;;;;;;;;;5013774;28;20033;-57
2021/03/26 11:46:37;;;;;;;22.60;3.13;;;;;;;;;;4996264;28;20511;-54
2021/03/26 11:49:14;;;;;;;19.25;3.67;;;;;;;;;;5000211;28;20026;-54
2021/03/26 11:51:44;;;;;;;21.60;3.53;;;;;;;;;;5000778;28;20038;-57
2021/03/26 11:54:29;;;;;;;45.95;5.25;;;;;;;;;;5013781;28;20137;-53
2021/03/26 11:57:16;;;;;;;24.08;3.40;;;;;;;;;;5010364;28;20034;-53
2021/03/26 11:59:43;;;;;;;18.15;3.20;;;;;;;;;;4997119;28;20026;-58
2021/03/26 12:02:17;;;;;;;13.20;2.35;;;;;;;;;;4996116;28;20062;-60
2021/03/26 12:04:49;;;;;;;12.05;2.60;;;;;;;;;;4996093;28;20150;-53
2021/03/26 12:07:18;;;;;;;12.75;2.67;;;;;;;;;;4997411;28;20026;-57
2021/03/26 12:09:53;;;;;;;18.17;2.95;;;;;;;;;;4995202;28;20033;-54
2021/03/26 12:12:21;;;;;;;16.45;2.80;;;;;;;;;;4998451;28;20173;-51
2021/03/26 12:15:06;;;;;;;17.08;3.22;;;;;;;;;;4995170;28;20030;-53
2021/03/26 12:17:47;;;;;;;17.58;2.33;;;;;;;;;;4976601;28;20525;-58
2021/03/26 12:20:17;;;;;;;17.53;2.97;;;;;;;;;;4994727;28;20033;-55
2021/03/26 12:23:03;;;;;;;18.75;2.60;;;;;;;;;;4992398;28;20333;-51
2021/03/26 12:25:33;;;;;;;16.38;2.92;;;;;;;;;;4995778;28;20042;-51
2021/03/26 12:28:08;;;;;;;17.48;3.53;;;;;;;;;;4986285;28;20536;-52
2021/03/26 12:30:55;;;;;;;13.02;2.05;;;;;;;;;;5005248;28;20030;-54
2021/03/26 12:33:39;;;;;;;9.98;2.45;;;;;;;;;;4983264;28;20405;-54
2021/03/26 12:36:11;;;;;;;11.57;2.40;;;;;;;;;;4998043;28;20174;-58
2021/03/26 12:38:39;;;;;;;14.13;1.98;;;;;;;;;;5003643;28;20033;-50
2021/03/26 12:41:21;;;;;;;25.05;3.28;;;;;;;;;;5001551;28;20105;-53
2021/03/26 12:43:53;;;;;;;12.82;2.42;;;;;;;;;;4995848;28;20069;-50
2021/03/26 12:46:23;;;;;;;26.40;3.65;;;;;;;;;;4976170;28;20394;-51
2021/03/26 12:48:55;;;;;;;31.58;4.00;;;;;;;;;;4999152;28;20712;-55
2021/03/26 12:51:40;;;;;;;28.20;4.30;;;;;;;;;;4996968;28;20110;-65
2021/03/26 12:54:13;;;;;;;30.67;4.50;;;;;;;;;;4991162;28;20258;-54
2021/03/26 12:56:42;;;;;;;37.53;5.07;;;;;;;;;;4996361;28;20054;-54
2021/03/26 12:59:18;;;;;;;34.47;4.80;;;;;;;;;;5010005;28;20477;-50
2021/03/26 13:01:51;;;;;;;31.55;4.75;;;;;;;;;;5010554;28;20083;-50
2021/03/26 13:04:35;;;;;;;32.50;4.47;;;;;;;;;;4995008;28;20037;-57
2021/03/26 13:07:04;;;;;;;27.52;3.72;;;;;;;;;;5000795;28;20714;-54
2021/03/26 13:09:37;;;;;;;25.50;3.90;;;;;;;;;;5007944;28;20093;-52
2021/03/26 13:12:09;;;;;;;25.70;4.32;;;;;;;;;;5002228;28;20401;-51
2021/03/26 13:14:43;;;;;;;19.67;3.42;;;;;;;;;;5010882;28;20014;-58
2021/03/26 13:17:27;;;;;;;25.40;3.60;;;;;;;;;;4942294;28;1774335;-50
2021/03/26 13:20:04;;;;;;;23.00;3.72;;;;;;;;;;5011640;28;20037;-49
2021/03/26 13:22:34;;;;;;;25.88;3.72;;;;;;;;;;5011882;28;20076;-55
2021/03/26 13:25:07;;;;;;;16.25;3.10;;;;;;;;;;5007998;28;20110;-50
2021/03/26 13:27:33;;;;;;;24.50;3.97;;;;;;;;;;5012796;28;20021;-48
2021/03/26 13:30:06;;;;;;;20.02;3.17;;;;;;;;;;5012512;28;20032;-47
2021/03/26 13:32:59;;;;;;;23.73;3.55;;;;;;;;;;5007300;28;20034;-49
2021/03/26 13:35:26;;;;;;;;;;;;;;;;;;5009479;28;20385;-48
2021/03/26 13:38:19;;;;;;;14.52;3.17;;;;;;;;;;5012313;28;19912;-49
2021/03/26 13:40:49;;;;;;;18.15;2.72;;;;;;;;;;5009658;28;20120;-47
2021/03/26 13:43:16;;;;;;;17.05;3.38;;;;;;;;;;5011706;28;20020;-48
2021/03/26 13:45:51;;;;;;;19.92;3.03;;;;;;;;;;5012407;28;20032;-49
2021/03/26 13:48:19;;;;;;;18.88;3.28;;;;;;;;;;4999731;28;20018;-52
2021/03/26 13:50:48;;;;;;;15.77;2.97;;;;;;;;;;5004304;28;20084;-49
2021/03/26 13:53:35;;;;;;;15.82;3.05;;;;;;;;;;5011441;28;20486;-56
2021/03/26 13:56:11;;;;;;;22.73;3.03;;;;;;;;;;5011877;28;20049;-48
2021/03/26 13:58:41;;;;;;;17.90;3.03;;;;;;;;;;5012369;28;20025;-53
2021/03/26 14:01:10;;;;;;;16.40;3.25;;;;;;;;;;4994328;28;20445;-52
2021/03/26 14:03:43;;;;;;;30.08;3.67;;;;;;;;;;5011642;28;20010;-53
2021/03/26 14:06:10;;;;;;;18.38;2.50;;;;;;;;;;5012012;28;20425;-53
2021/03/26 14:08:56;;;;;;;16.15;2.88;;;;;;;;;;5001000;28;20018;-53
2021/03/26 14:11:41;;;;;;;14.50;2.92;;;;;;;;;;4994226;28;20025;-50
2021/03/26 14:14:15;;;;;;;21.17;3.17;;;;;;;;;;5011210;28;20110;-52
2021/03/26 14:16:51;;;;;;;24.08;3.55;;;;;;;;;;5011816;28;20022;-51
2021/03/26 14:19:38;;;;;;;21.13;2.70;;;;;;;;;;5011083;28;20058;-50
2021/03/26 14:22:17;;;;;;;12.65;3.13;;;;;;;;;;5011155;28;20068;-50
2021/03/26 14:24:47;;;;;;;12.48;3.20;;;;;;;;;;5010437;28;20450;-51
2021/03/26 14:27:18;;;;;;;17.50;2.83;;;;;;;;;;4997363;28;20101;-52
2021/03/26 14:29:51;;;;;;;21.40;3.40;;;;;;;;;;5002205;28;20125;-47
2021/03/26 14:32:21;;;;;;;25.13;3.05;;;;;;;;;;4996691;28;20386;-53
2021/03/26 14:34:58;;;;;;;15.48;2.92;;;;;;;;;;4994152;28;20014;-58
2021/03/26 14:37:29;;;;;;;16.38;3.05;;;;;;;;;;4994145;28;20023;-53
2021/03/26 14:40:03;;;;;;;19.05;2.55;;;;;;;;;;4993127;28;20046;-49
2021/03/26 14:42:36;;;;;;;17.52;2.63;;;;;;;;;;5000565;28;20109;-51
2021/03/26 14:45:06;;;;;;;11.50;2.22;;;;;;;;;;4992340;28;20026;-51
2021/03/26 14:47:35;;;;;;;13.10;2.72;;;;;;;;;;5006357;28;20037;-49
2021/03/26 14:50:05;;;;;;;21.38;2.92;;;;;;;;;;5008185;28;20022;-53
2021/03/26 14:52:38;;;;;;;12.48;2.65;;;;;;;;;;5005528;28;20036;-53
2021/03/26 14:55:14;;;;;;;8.77;2.17;;;;;;;;;;5006848;28;20033;-48
2021/03/26 14:57:44;;;;;;;12.05;2.53;;;;;;;;;;5011756;28;20101;-49
2021/03/26 15:00:20;;;;;;;14.30;2.47;;;;;;;;;;4991666;28;20022;-47
2021/03/26 15:03:10;;;;;;;9.98;2.45;;;;;;;;;;5004903;28;20029;-51
2021/03/26 15:05:57;;;;;;;9.63;2.67;;;;;;;;;;4963805;28;20442;-52
2021/03/26 15:08:32;;;;;;;9.15;2.13;;;;;;;;;;5013825;28;20018;-48
2021/03/26 15:11:01;;;;;;;12.50;2.42;;;;;;;;;;5004555;28;20035;-48
2021/03/26 15:13:35;;;;;;;9.95;2.50;;;;;;;;;;5013242;28;20025;-49
2021/03/26 15:16:27;;;;;;;8.90;2.25;;;;;;;;;;5006075;28;20075;-48
2021/03/26 15:18:57;;;;;;;13.40;2.70;;;;;;;;;;5014872;28;20053;-49
2021/03/26 15:21:39;;;;;;;10.25;2.10;;;;;;;;;;4989697;28;20274;-61
2021/03/26 15:24:12;;;;;;;8.15;2.03;;;;;;;;;;4995255;28;20034;-61
2021/03/26 15:26:45;;;;;;;22.48;2.78;;;;;;;;;;4998652;28;20105;-61